createdAt,value
2022-09-03T00:00:14.617Z,14.66
2022-09-03T00:03:58.154Z,14.66
2022-09-03T00:07:04.490Z,14.56
2022-09-03T00:10:09.524Z,14.58
2022-09-03T00:13:15.920Z,14.45
2022-09-03T00:16:19.708Z,14.18
2022-09-03T00:19:31.106Z,14.01
2022-09-03T00:23:05.959Z,13.96
2022-09-03T00:26:17.871Z,13.94
2022-09-03T00:29:24.331Z,13.97
2022-09-03T00:32:47.775Z,13.89
2022-09-03T00:36:02.258Z,13.89
2022-09-03T00:39:04.831Z,13.87
2022-09-03T00:42:12.385Z,13.89
2022-09-03T00:45:33.923Z,14.02
2022-09-03T00:49:20.540Z,13.98
2022-09-03T00:52:23.156Z,13.93
2022-09-03T00:55:49.771Z,13.94
2022-09-03T00:59:01.641Z,13.87
2022-09-03T01:02:15.957Z,13.78
2022-09-03T01:05:41.916Z,13.82
2022-09-03T01:09:10.301Z,13.89
2022-09-03T01:12:38.333Z,13.84
2022-09-03T01:16:05.739Z,13.93
2022-09-03T01:19:25.470Z,13.98
2022-09-03T01:22:44.553Z,13.84
2022-09-03T01:26:11.129Z,13.77
2022-09-03T01:29:28.405Z,13.71
2022-09-03T01:33:02.854Z,13.73
2022-09-03T01:36:20.605Z,13.77
2022-09-03T01:39:44.364Z,13.80
2022-09-03T01:43:11.265Z,13.93
2022-09-03T01:46:17.472Z,13.92
2022-09-03T01:49:26.006Z,13.86
2022-09-03T01:52:46.554Z,13.87
2022-09-03T01:55:58.343Z,13.85
2022-09-03T01:59:09.831Z,13.92
2022-09-03T02:02:21.281Z,13.93
2022-09-03T02:05:24.838Z,13.85
2022-09-03T02:08:26.495Z,13.83
2022-09-03T02:11:28.044Z,13.81
2022-09-03T02:14:29.672Z,13.84
2022-09-03T02:17:32.133Z,13.89
2022-09-03T02:20:33.721Z,13.87
2022-09-03T02:23:35.246Z,13.72
2022-09-03T02:26:36.751Z,13.73
2022-09-03T02:29:38.331Z,13.72
2022-09-03T02:32:39.870Z,13.58
2022-09-03T02:35:42.031Z,13.54
2022-09-03T02:38:43.584Z,13.51
2022-09-03T02:41:45.735Z,13.51
2022-09-03T02:44:52.107Z,13.57
2022-09-03T02:47:56.210Z,13.66
2022-09-03T02:50:57.723Z,13.68
2022-09-03T02:53:59.236Z,13.66
2022-09-03T02:57:00.770Z,13.66
2022-09-03T03:00:02.507Z,13.56
2022-09-03T03:03:04.755Z,13.61
2022-09-03T03:06:06.976Z,13.73
2022-09-03T03:09:08.530Z,13.74
2022-09-03T03:12:10.349Z,13.80
2022-09-03T03:15:11.866Z,13.83
2022-09-03T03:18:14.044Z,13.93
2022-09-03T03:21:15.906Z,14.01
2022-09-03T03:24:17.421Z,14.02
2022-09-03T03:27:19.006Z,13.93
2022-09-03T03:30:20.953Z,13.91
2022-09-03T03:33:22.533Z,13.85
2022-09-03T03:36:27.218Z,13.81
2022-09-03T03:39:28.788Z,13.61
2022-09-03T03:42:33.610Z,13.66
2022-09-03T03:45:35.418Z,13.70
2022-09-03T03:48:38.539Z,13.73
2022-09-03T03:51:40.803Z,13.71
2022-09-03T03:54:42.456Z,13.80
2022-09-03T03:57:44.286Z,13.89
2022-09-03T04:00:47.991Z,13.93
2022-09-03T04:03:49.504Z,13.97
2022-09-03T04:06:51.025Z,13.94
2022-09-03T04:09:52.539Z,13.90
2022-09-03T04:12:54.547Z,13.91
2022-09-03T04:16:01.983Z,13.91
2022-09-03T04:19:03.537Z,13.85
2022-09-03T04:22:05.043Z,13.83
2022-09-03T04:25:06.808Z,13.86
2022-09-03T04:28:08.346Z,13.87
2022-09-03T04:31:10.941Z,13.90
2022-09-03T04:34:13.351Z,13.91
2022-09-03T04:37:16.457Z,13.88
2022-09-03T04:40:17.970Z,13.91
2022-09-03T04:43:19.484Z,13.94
2022-09-03T04:46:21.766Z,14.01
2022-09-03T04:49:25.001Z,14.02
2022-09-03T04:52:29.959Z,14.04
2022-09-03T04:55:35.536Z,14.01
2022-09-03T04:58:37.065Z,13.99
2022-09-03T05:01:40.319Z,14.06
2022-09-03T05:04:42.469Z,14.16
2022-09-03T05:07:43.999Z,14.22
2022-09-03T05:10:45.514Z,14.24
2022-09-03T05:13:48.682Z,14.21
2022-09-03T05:16:53.204Z,14.20
2022-09-03T05:19:54.908Z,14.26
2022-09-03T05:22:57.113Z,14.20
2022-09-03T05:25:59.106Z,14.23
2022-09-03T05:29:01.815Z,14.25
2022-09-03T05:32:04.088Z,14.28
2022-09-03T05:35:06.544Z,14.34
2022-09-03T05:38:09.715Z,14.32
2022-09-03T05:41:12.217Z,14.38
2022-09-03T05:44:14.614Z,14.40
2022-09-03T05:47:16.489Z,14.46
2022-09-03T05:50:18.599Z,14.46
2022-09-03T05:53:20.045Z,14.45
2022-09-03T05:56:23.151Z,14.51
2022-09-03T05:59:24.667Z,14.53
2022-09-03T06:02:26.315Z,14.39
2022-09-03T06:05:27.905Z,14.51
2022-09-03T06:08:29.437Z,14.65
2022-09-03T06:11:31.845Z,14.75
2022-09-03T06:14:33.429Z,14.73
2022-09-03T06:17:34.900Z,14.76
2022-09-03T06:20:37.352Z,14.75
2022-09-03T06:23:39.023Z,14.73
2022-09-03T06:26:43.000Z,14.84
2022-09-03T06:29:44.863Z,14.95
2022-09-03T06:32:46.875Z,15.02
2022-09-03T06:35:48.259Z,15.03
2022-09-03T06:38:52.404Z,15.15
2022-09-03T06:41:55.068Z,15.21
2022-09-03T06:44:57.511Z,15.38
2022-09-03T06:47:59.046Z,15.53
2022-09-03T06:51:11.399Z,15.67
2022-09-03T06:54:13.192Z,15.76
2022-09-03T06:57:14.693Z,15.82
2022-09-03T07:00:16.515Z,15.87
2022-09-03T07:03:19.052Z,15.75
2022-09-03T07:06:21.733Z,15.72
2022-09-03T07:09:23.270Z,15.80
2022-09-03T07:12:24.755Z,15.88
2022-09-03T07:15:26.374Z,15.90
2022-09-03T07:18:27.956Z,16.03
2022-09-03T07:21:29.883Z,15.99
2022-09-03T07:24:31.401Z,16.14
2022-09-03T07:27:35.098Z,16.27
2022-09-03T07:30:36.614Z,16.36
2022-09-03T07:33:39.246Z,16.48
2022-09-03T07:36:45.624Z,16.51
2022-09-03T07:39:47.194Z,16.67
2022-09-03T07:42:52.057Z,16.81
2022-09-03T07:45:57.109Z,16.90
2022-09-03T07:48:59.097Z,16.84
2022-09-03T07:52:01.261Z,16.77
2022-09-03T07:55:04.835Z,16.83
2022-09-03T07:58:07.411Z,16.88
2022-09-03T08:01:13.207Z,16.88
2022-09-03T08:04:15.489Z,16.78
2022-09-03T08:07:17.016Z,16.74
2022-09-03T08:10:18.531Z,16.63
2022-09-03T08:13:20.056Z,16.69
2022-09-03T08:16:21.597Z,16.80
2022-09-03T08:19:23.260Z,17.02
2022-09-03T08:22:25.533Z,17.36
2022-09-03T08:25:27.064Z,17.42
2022-09-03T08:28:28.703Z,17.31
2022-09-03T08:31:30.410Z,17.19
2022-09-03T08:34:32.399Z,17.80
2022-09-03T08:37:33.914Z,18.25
2022-09-03T08:40:37.480Z,18.70
2022-09-03T08:44:06.630Z,18.68
2022-09-03T08:47:23.319Z,19.13
2022-09-03T08:50:37.276Z,19.55
2022-09-03T08:53:45.604Z,19.72
2022-09-03T08:56:47.589Z,19.59
2022-09-03T08:59:51.308Z,19.42
2022-09-03T09:02:52.777Z,19.41
2022-09-03T09:06:30.261Z,19.22
2022-09-03T09:09:44.260Z,19.36
2022-09-03T09:13:05.061Z,19.37
2022-09-03T09:16:27.729Z,19.36
2022-09-03T09:19:39.421Z,19.35
2022-09-03T09:22:41.878Z,19.58
2022-09-03T09:25:50.123Z,20.57
2022-09-03T09:29:11.916Z,21.28
2022-09-03T09:32:13.456Z,21.77
2022-09-03T09:35:15.859Z,21.68
2022-09-03T09:38:27.646Z,21.59
2022-09-03T09:41:30.041Z,21.45
2022-09-03T09:44:31.616Z,21.19
2022-09-03T09:47:35.907Z,21.39
2022-09-03T09:50:37.539Z,20.72
2022-09-03T09:53:39.491Z,20.60
2022-09-03T09:56:42.106Z,20.41
2022-09-03T09:59:43.766Z,20.39
2022-09-03T10:02:52.001Z,20.49
2022-09-03T10:06:22.386Z,20.40
2022-09-03T10:09:31.623Z,20.40
2022-09-03T10:12:43.409Z,20.33
2022-09-03T10:16:28.075Z,20.22
2022-09-03T10:19:36.781Z,20.18
2022-09-03T10:22:56.510Z,20.23
2022-09-03T10:26:08.195Z,20.12
2022-09-03T10:29:09.720Z,19.83
2022-09-03T10:32:47.760Z,19.70
2022-09-03T10:35:53.330Z,19.64
2022-09-03T10:39:02.393Z,19.70
2022-09-03T10:42:27.518Z,19.63
2022-09-03T10:45:48.750Z,19.60
2022-09-03T10:49:10.999Z,19.62
2022-09-03T10:52:23.936Z,19.62
2022-09-03T10:55:25.464Z,19.49
2022-09-03T10:58:43.401Z,19.47
2022-09-03T11:01:54.129Z,19.52
2022-09-03T11:05:03.023Z,19.56
2022-09-03T11:08:17.551Z,19.62
2022-09-03T11:11:26.661Z,19.64
2022-09-03T11:14:38.822Z,19.58
2022-09-03T11:17:42.787Z,19.61
2022-09-03T11:20:44.295Z,19.62
2022-09-03T11:23:47.587Z,19.42
2022-09-03T11:26:54.270Z,19.15
2022-09-03T11:30:05.987Z,18.92
2022-09-03T11:33:09.586Z,18.44
2022-09-03T11:36:11.744Z,18.35
2022-09-03T11:39:24.630Z,17.33
2022-09-03T11:42:36.916Z,17.00
2022-09-03T11:45:38.966Z,17.05
2022-09-03T11:48:45.341Z,17.07
2022-09-03T11:51:59.749Z,17.06
2022-09-03T11:55:01.303Z,17.00
2022-09-03T11:58:29.996Z,17.08
2022-09-03T12:01:31.798Z,17.07
2022-09-03T12:04:45.795Z,17.25
2022-09-03T12:08:05.411Z,17.30
2022-09-03T12:11:48.456Z,17.57
2022-09-03T12:15:26.993Z,17.87
2022-09-03T12:18:33.135Z,18.25
2022-09-03T12:21:38.943Z,19.39
2022-09-03T12:24:43.065Z,19.61
2022-09-03T12:27:45.306Z,19.07
2022-09-03T12:30:46.994Z,18.86
2022-09-03T12:33:49.565Z,18.51
2022-09-03T12:36:52.850Z,18.63
2022-09-03T12:40:11.291Z,19.15
2022-09-03T12:46:35.742Z,20.05
2022-09-03T12:49:38.785Z,20.20
2022-09-03T12:52:43.479Z,19.85
2022-09-03T12:55:48.106Z,21.26
2022-09-03T12:58:53.728Z,22.33
2022-09-03T13:01:56.508Z,22.34
2022-09-03T13:04:58.043Z,22.84
2022-09-03T13:08:01.559Z,23.72
2022-09-03T13:11:04.912Z,22.19
2022-09-03T13:14:10.107Z,21.86
2022-09-03T13:17:20.739Z,22.15
2022-09-03T13:20:43.807Z,21.45
2022-09-03T13:23:54.123Z,20.88
2022-09-03T13:27:12.143Z,20.55
2022-09-03T13:30:19.385Z,20.32
2022-09-03T13:33:23.149Z,20.18
2022-09-03T13:36:41.037Z,19.93
2022-09-03T13:39:47.687Z,19.95
2022-09-03T13:42:53.335Z,19.77
2022-09-03T13:46:12.593Z,19.74
2022-09-03T13:49:42.047Z,19.68
2022-09-03T13:52:56.879Z,19.75
2022-09-03T13:56:05.293Z,19.87
2022-09-03T13:59:17.288Z,19.95
2022-09-03T14:02:34.525Z,20.23
2022-09-03T14:06:14.660Z,20.31
2022-09-03T14:09:26.744Z,20.44
2022-09-03T14:12:34.281Z,20.36
2022-09-03T14:15:50.186Z,20.16
2022-09-03T14:19:02.572Z,19.93
2022-09-03T14:22:22.448Z,19.89
2022-09-03T14:25:25.456Z,19.67
2022-09-03T14:28:34.937Z,19.64
2022-09-03T14:31:58.398Z,19.67
2022-09-03T14:35:20.329Z,19.57
2022-09-03T14:38:40.140Z,19.68
2022-09-03T14:42:09.473Z,19.76
2022-09-03T14:45:18.735Z,20.02
2022-09-03T14:48:42.024Z,20.36
2022-09-03T14:51:57.250Z,20.60
2022-09-03T14:55:19.948Z,20.79
2022-09-03T14:58:33.546Z,20.92
2022-09-03T15:01:39.277Z,20.95
2022-09-03T15:04:50.591Z,20.86
2022-09-03T15:07:53.504Z,21.22
2022-09-03T15:10:59.852Z,21.45
2022-09-03T15:14:24.058Z,21.72
2022-09-03T15:18:11.919Z,21.43
2022-09-03T15:21:37.876Z,21.29
2022-09-03T15:25:03.772Z,21.10
2022-09-03T15:28:06.472Z,21.07
2022-09-03T15:31:17.151Z,20.97
2022-09-03T15:34:21.598Z,20.83
2022-09-03T15:37:34.010Z,20.72
2022-09-03T15:40:48.923Z,20.85
2022-09-03T15:43:51.035Z,20.88
2022-09-03T15:47:13.987Z,20.63
2022-09-03T15:50:52.649Z,20.66
2022-09-03T15:53:57.203Z,20.71
2022-09-03T15:57:14.098Z,20.64
2022-09-03T16:00:21.533Z,20.60
2022-09-03T16:03:46.856Z,20.37
2022-09-03T16:07:06.257Z,20.09
2022-09-03T16:10:25.039Z,19.97
2022-09-03T16:13:38.978Z,20.38
2022-09-03T16:16:55.984Z,20.06
2022-09-03T16:20:03.890Z,19.88
2022-09-03T16:23:26.935Z,19.83
2022-09-03T16:26:43.871Z,19.83
2022-09-03T16:29:56.127Z,19.68
2022-09-03T16:33:22.370Z,19.67
2022-09-03T16:36:32.780Z,19.57
2022-09-03T16:39:50.410Z,19.63
2022-09-03T16:43:39.684Z,19.58
2022-09-03T16:46:55.179Z,19.46
2022-09-03T16:50:18.603Z,19.48
2022-09-03T16:53:29.020Z,19.64
2022-09-03T16:56:55.474Z,19.66
2022-09-03T17:00:09.057Z,19.72
2022-09-03T17:03:26.093Z,19.78
2022-09-03T17:06:47.083Z,19.79
2022-09-03T17:10:01.553Z,19.52
2022-09-03T17:13:15.178Z,19.21
2022-09-03T17:16:44.653Z,19.29
2022-09-03T17:20:15.456Z,19.10
2022-09-03T17:23:26.365Z,18.80
2022-09-03T17:26:48.050Z,18.40
2022-09-03T17:30:16.393Z,18.20
2022-09-03T17:33:36.409Z,18.11
2022-09-03T17:36:38.418Z,17.97
2022-09-03T17:39:59.425Z,17.90
2022-09-03T17:43:13.171Z,17.69
2022-09-03T17:46:31.388Z,17.65
2022-09-03T17:49:41.165Z,17.56
2022-09-03T17:52:49.494Z,17.39
2022-09-03T17:56:02.929Z,17.34
2022-09-03T17:59:28.649Z,17.21
2022-09-03T18:02:39.387Z,17.27
2022-09-03T18:05:46.899Z,17.22
2022-09-03T18:09:07.300Z,17.16
2022-09-03T18:12:14.674Z,17.05
2022-09-03T18:15:27.948Z,16.99
2022-09-03T18:18:31.332Z,16.95
2022-09-03T18:21:54.427Z,16.90
2022-09-03T18:25:16.630Z,16.86
2022-09-03T18:28:36.626Z,16.81
2022-09-03T18:31:56.830Z,16.69
2022-09-03T18:35:16.814Z,16.63
2022-09-03T18:38:43.259Z,16.53
2022-09-03T18:42:41.032Z,16.45
2022-09-03T18:46:46.268Z,16.40
2022-09-03T18:49:47.055Z,16.38
2022-09-03T18:53:19.423Z,16.47
2022-09-03T18:56:45.485Z,16.51
2022-09-03T19:00:29.331Z,16.44
2022-09-03T19:04:11.580Z,16.40
2022-09-03T19:07:53.988Z,16.37
2022-09-03T19:11:28.217Z,16.37
2022-09-03T19:14:54.119Z,16.29
2022-09-03T19:18:26.486Z,16.36
2022-09-03T19:21:46.413Z,16.38
2022-09-03T19:25:14.954Z,16.41
2022-09-03T19:28:42.721Z,16.36
2022-09-03T19:32:09.961Z,16.26
2022-09-03T19:35:36.819Z,16.20
2022-09-03T19:39:28.150Z,16.15
2022-09-03T19:43:02.275Z,16.10
2022-09-03T19:46:32.680Z,16.04
2022-09-03T19:50:18.587Z,15.97
2022-09-03T19:53:38.571Z,15.97
2022-09-03T19:56:58.622Z,15.96
2022-09-03T20:00:29.334Z,15.83
2022-09-03T20:03:53.178Z,15.80
2022-09-03T20:07:13.319Z,15.60
2022-09-03T20:10:24.228Z,15.60
2022-09-03T20:13:25.798Z,15.48
2022-09-03T20:16:36.103Z,15.37
2022-09-03T20:19:48.682Z,15.33
2022-09-03T20:22:56.023Z,15.32
2022-09-03T20:26:10.829Z,15.34
2022-09-03T20:29:40.487Z,15.31
2022-09-03T20:33:25.821Z,15.14
2022-09-03T20:36:42.698Z,15.08
2022-09-03T20:40:07.899Z,15.12
2022-09-03T20:43:25.815Z,15.00
2022-09-03T20:46:46.758Z,14.95
2022-09-03T20:50:04.250Z,14.84
2022-09-03T20:53:17.986Z,14.80
2022-09-03T20:56:45.977Z,14.71
2022-09-03T21:00:12.499Z,14.69
2022-09-03T21:03:20.080Z,14.74
2022-09-03T21:06:42.774Z,14.73
2022-09-03T21:10:17.026Z,14.66
2022-09-03T21:13:46.339Z,14.51
2022-09-03T21:16:57.153Z,14.36
2022-09-03T21:20:07.900Z,14.34
2022-09-03T21:23:31.820Z,14.39
2022-09-03T21:26:39.835Z,14.42
2022-09-03T21:29:52.156Z,14.43
2022-09-03T21:33:05.046Z,14.26
2022-09-03T21:36:10.531Z,14.22
2022-09-03T21:39:20.243Z,14.20
2022-09-03T21:42:36.465Z,14.24
2022-09-03T21:45:53.684Z,14.18
2022-09-03T21:48:58.705Z,14.19
2022-09-03T21:52:07.353Z,14.22
2022-09-03T21:55:27.705Z,14.26
2022-09-03T21:58:57.282Z,14.20
2022-09-03T22:02:24.481Z,14.21
2022-09-03T22:05:35.841Z,14.15
2022-09-03T22:08:45.312Z,14.11
2022-09-03T22:12:05.172Z,14.07
2022-09-03T22:15:10.146Z,14.09
2022-09-03T22:18:23.819Z,14.08
2022-09-03T22:21:32.239Z,14.10
2022-09-03T22:24:52.495Z,14.04
2022-09-03T22:28:09.044Z,13.87
2022-09-03T22:31:12.704Z,13.79
2022-09-03T22:34:31.646Z,13.86
2022-09-03T22:37:54.465Z,13.71
2022-09-03T22:41:12.122Z,13.67
2022-09-03T22:44:22.760Z,13.59
2022-09-03T22:47:45.940Z,13.49
2022-09-03T22:50:57.909Z,13.52
2022-09-03T22:54:09.424Z,13.50
2022-09-03T22:57:11.046Z,13.42
2022-09-03T23:00:13.062Z,13.39
2022-09-03T23:03:16.751Z,13.37
2022-09-03T23:06:26.708Z,13.40
2022-09-03T23:09:30.322Z,13.44
2022-09-03T23:12:44.911Z,13.34
2022-09-03T23:15:52.746Z,13.26
2022-09-03T23:18:54.348Z,13.20
2022-09-03T23:22:01.314Z,13.15
2022-09-03T23:25:15.583Z,13.11
2022-09-03T23:28:29.854Z,13.07
2022-09-03T23:31:31.416Z,13.10
2022-09-03T23:34:33.029Z,13.11
2022-09-03T23:37:56.492Z,13.16
2022-09-03T23:40:59.932Z,13.07
2022-09-03T23:44:07.351Z,13.01
2022-09-03T23:47:12.188Z,13.01
2022-09-03T23:50:46.418Z,12.99
2022-09-03T23:53:58.933Z,12.94
2022-09-03T23:57:08.461Z,12.96
